Terminal Aerodrome Forecast
Issued by NWS Flagstaff, AZ

Home | Current Version | Previous Version | Text Only | Print | Product List | Glossary On
Versions: 1 2 3 4 5 6 7 8 9 10 11 12 13 14 15 16
045
FTUS45 KFGZ 242320
TAFFLG
TAF
KFLG 242320Z 2500/2524 25009KT P6SM SCT050 BKN110
      TEMPO 2500/2502 VRB10G20KT P6SM -TSRA BKN040CB
     FM250200 VRB06KT P6SM FEW050 SCT110
      TEMPO 2519/2523 VRB10G20KT P6SM -TSRA BKN040CB=

USA.gov is the U.S. government's official web portal to all federal, state and local government web resources and services.